Time;durP1;ratioP1;P1;durP2;ratioP2;P2;SDS_P1;SDS_P2;PMS_P1;PMS_P2;Temp;Humidity;BMP_temperature;BMP_pressure;BME280_temperature;BME280_humidity;BME280_pressure;Samples;Min_cycle;Max_cycle;Signal;HPM_P1;HPM_P2
2024/02/28 00:00:33;;;;;;;9.95;6.07;;;10.20;99.90;;;;;;10123072;28;20028;-65
2024/02/28 00:05:23;;;;;;;9.95;6.00;;;10.20;99.90;;;;;;10117703;28;20052;-65
2024/02/28 00:10:14;;;;;;;7.63;5.55;;;10.10;99.90;;;;;;10121687;28;20033;-66
2024/02/28 00:15:10;;;;;;;11.80;6.65;;;10.00;99.90;;;;;;10123077;28;20044;-65
2024/02/28 00:20:00;;;;;;;10.43;6.05;;;10.00;99.90;;;;;;10122585;28;20031;-66
2024/02/28 00:24:51;;;;;;;10.55;5.97;;;10.10;99.90;;;;;;10114327;28;20073;-65
2024/02/28 00:29:42;;;;;;;11.57;6.50;;;10.00;99.90;;;;;;10128569;28;20067;-65
2024/02/28 00:34:32;;;;;;;11.70;6.30;;;10.00;99.90;;;;;;10122471;28;20033;-65
2024/02/28 00:39:23;;;;;;;10.82;5.90;;;9.90;99.90;;;;;;10122893;28;20037;-65
2024/02/28 00:44:14;;;;;;;11.13;5.85;;;9.90;99.90;;;;;;10124188;28;20120;-65
2024/02/28 00:49:04;;;;;;;9.82;5.95;;;9.80;99.90;;;;;;10127649;28;20070;-66
2024/02/28 00:53:56;;;;;;;10.23;5.53;;;9.90;99.90;;;;;;10129187;28;20098;-66
2024/02/28 00:58:47;;;;;;;12.77;6.10;;;9.80;99.90;;;;;;10120409;28;20025;-66
2024/02/28 01:03:37;;;;;;;9.95;6.35;;;9.70;99.90;;;;;;10111570;28;20102;-66
2024/02/28 01:08:28;;;;;;;11.75;6.15;;;9.70;99.90;;;;;;10120355;28;20160;-66
2024/02/28 01:13:18;;;;;;;13.68;7.05;;;9.70;99.90;;;;;;10124813;28;20282;-67
2024/02/28 01:18:10;;;;;;;11.95;6.35;;;9.80;99.90;;;;;;10130283;28;20040;-67
2024/02/28 01:23:00;;;;;;;11.38;6.47;;;9.80;99.90;;;;;;10137629;28;20045;-66
2024/02/28 01:27:51;;;;;;;13.73;7.05;;;9.70;99.90;;;;;;10130824;28;20635;-66
2024/02/28 01:32:42;;;;;;;13.35;6.05;;;9.80;99.90;;;;;;10124214;28;20037;-65
2024/02/28 01:37:32;;;;;;;10.20;6.00;;;9.80;99.90;;;;;;10109331;28;20488;-65
2024/02/28 01:42:23;;;;;;;11.00;6.43;;;9.80;99.90;;;;;;10129293;28;20037;-65
2024/02/28 01:47:14;;;;;;;10.30;6.15;;;9.70;99.90;;;;;;10118548;28;20082;-66
2024/02/28 01:52:05;;;;;;;11.90;6.35;;;9.70;99.90;;;;;;10122042;28;20087;-65
2024/02/28 01:56:56;;;;;;;10.30;5.80;;;9.70;99.90;;;;;;10096937;28;20032;-65
2024/02/28 02:01:46;;;;;;;10.98;6.75;;;9.70;99.90;;;;;;10104524;28;20037;-65
2024/02/28 02:06:41;;;;;;;14.10;6.13;;;9.70;99.90;;;;;;10119979;28;20410;-65
2024/02/28 02:11:32;;;;;;;13.82;6.80;;;9.60;99.90;;;;;;10099344;28;20064;-66
2024/02/28 02:16:26;;;;;;;11.32;6.95;;;9.50;99.90;;;;;;10112964;28;20071;-66
2024/02/28 02:21:18;;;;;;;10.30;5.97;;;9.40;99.90;;;;;;10115764;28;20215;-65
2024/02/28 02:26:09;;;;;;;13.05;6.05;;;9.50;99.90;;;;;;10113381;28;20475;-66
2024/02/28 02:31:00;;;;;;;12.95;6.75;;;9.40;99.90;;;;;;10116890;28;20039;-66
2024/02/28 02:35:52;;;;;;;12.02;6.70;;;9.40;99.90;;;;;;10113777;28;20253;-65
2024/02/28 02:40:43;;;;;;;13.25;6.53;;;9.30;99.90;;;;;;10117038;28;20037;-66
2024/02/28 02:45:34;;;;;;;13.02;8.10;;;9.20;99.90;;;;;;10116077;28;20045;-66
2024/02/28 02:50:24;;;;;;;12.85;7.60;;;9.10;99.90;;;;;;10110260;28;20335;-66
2024/02/28 02:55:15;;;;;;;14.77;7.47;;;9.10;99.90;;;;;;10114180;28;20048;-66
2024/02/28 03:00:09;;;;;;;14.95;7.82;;;9.20;99.90;;;;;;10115364;28;20063;-68
2024/02/28 03:05:02;;;;;;;12.75;6.32;;;9.20;99.90;;;;;;10111935;28;20055;-66
2024/02/28 03:09:53;;;;;;;10.18;5.97;;;9.30;99.90;;;;;;10111416;28;20091;-66
2024/02/28 03:14:43;;;;;;;9.48;6.07;;;9.30;99.90;;;;;;10109847;28;20240;-66
2024/02/28 03:19:35;;;;;;;13.25;7.18;;;9.30;99.90;;;;;;10114099;28;20041;-66
2024/02/28 03:24:27;;;;;;;14.93;6.43;;;9.10;99.90;;;;;;10119327;28;20072;-66
2024/02/28 03:29:18;;;;;;;11.38;7.10;;;9.10;99.90;;;;;;10106955;28;20044;-66
2024/02/28 03:34:09;;;;;;;15.40;7.85;;;9.10;99.90;;;;;;10115890;28;20025;-67
2024/02/28 03:39:00;;;;;;;10.75;6.30;;;9.00;99.90;;;;;;10108685;28;20083;-65
2024/02/28 03:43:51;;;;;;;12.70;7.60;;;8.90;99.90;;;;;;10110081;28;20047;-66
2024/02/28 03:48:41;;;;;;;10.52;6.78;;;8.90;99.90;;;;;;10091270;28;20195;-68
2024/02/28 03:53:32;;;;;;;10.98;7.07;;;8.90;99.90;;;;;;10116730;28;20159;-66
2024/02/28 03:58:24;;;;;;;14.95;7.45;;;8.80;99.90;;;;;;10122113;28;20039;-68
2024/02/28 04:03:14;;;;;;;12.35;7.43;;;8.80;99.90;;;;;;10118253;28;20029;-68
2024/02/28 04:08:05;;;;;;;11.43;6.57;;;8.80;99.90;;;;;;10118160;28;20092;-69
2024/02/28 04:12:56;;;;;;;12.82;7.30;;;8.80;99.90;;;;;;10129050;28;20141;-69
2024/02/28 04:17:46;;;;;;;13.35;7.13;;;8.80;99.90;;;;;;10119506;28;20250;-69
2024/02/28 04:22:37;;;;;;;12.82;7.70;;;8.70;99.90;;;;;;10113645;28;20027;-69
2024/02/28 04:27:28;;;;;;;15.43;7.82;;;8.60;99.90;;;;;;10112870;28;20094;-66
2024/02/28 04:32:19;;;;;;;13.43;8.25;;;8.50;99.90;;;;;;10130637;28;20021;-68
2024/02/28 04:37:09;;;;;;;18.60;8.63;;;8.50;99.90;;;;;;10117495;28;20025;-68
2024/02/28 04:42:00;;;;;;;17.63;8.35;;;8.50;99.90;;;;;;10125661;28;20468;-69
2024/02/28 04:46:50;;;;;;;12.80;7.88;;;8.50;99.90;;;;;;10124473;28;20056;-68
2024/02/28 04:51:41;;;;;;;14.32;8.25;;;8.50;99.90;;;;;;10122364;28;20044;-68
2024/02/28 04:56:32;;;;;;;15.68;8.57;;;8.50;99.90;;;;;;10131562;28;20044;-68
2024/02/28 05:01:22;;;;;;;15.68;7.82;;;8.50;99.90;;;;;;10135550;28;20040;-66
2024/02/28 05:06:13;;;;;;;13.05;7.70;;;8.40;99.90;;;;;;10115298;28;20104;-66
2024/02/28 05:11:03;;;;;;;20.30;9.48;;;8.40;99.90;;;;;;10119027;28;20399;-67
2024/02/28 05:15:54;;;;;;;17.67;9.07;;;8.40;99.90;;;;;;10119580;28;20332;-66
2024/02/28 05:20:45;;;;;;;19.80;9.30;;;8.40;99.90;;;;;;10113514;28;20036;-68
2024/02/28 05:25:35;;;;;;;14.20;8.85;;;8.30;99.90;;;;;;10112841;28;20059;-68
2024/02/28 05:30:26;;;;;;;21.02;9.65;;;8.20;99.90;;;;;;10115089;28;20036;-68
2024/02/28 05:35:17;;;;;;;21.45;9.52;;;8.10;99.90;;;;;;10119096;28;20112;-68
2024/02/28 05:40:09;;;;;;;14.63;8.32;;;8.00;99.90;;;;;;10114561;28;20244;-69
2024/02/28 05:44:59;;;;;;;19.88;9.40;;;8.00;99.90;;;;;;10096933;28;20056;-65
2024/02/28 05:49:50;;;;;;;16.73;9.27;;;8.00;99.90;;;;;;10115328;28;20029;-66
2024/02/28 05:54:41;;;;;;;16.50;8.48;;;8.00;99.90;;;;;;10129844;28;20032;-66
2024/02/28 05:59:31;;;;;;;19.80;10.68;;;8.00;99.90;;;;;;10131817;28;20211;-66
2024/02/28 06:04:22;;;;;;;20.50;9.70;;;8.00;99.90;;;;;;10115187;28;20087;-65
2024/02/28 06:09:13;;;;;;;18.90;9.73;;;8.00;99.90;;;;;;10114942;28;20457;-66
2024/02/28 06:14:04;;;;;;;22.60;10.75;;;7.90;99.90;;;;;;10089197;28;20043;-66
2024/02/28 06:18:54;;;;;;;21.48;9.13;;;7.90;99.90;;;;;;10112059;28;20088;-65
2024/02/28 06:23:45;;;;;;;18.67;10.15;;;7.90;99.90;;;;;;10113573;28;20240;-65
2024/02/28 06:28:37;;;;;;;21.40;9.23;;;7.90;99.90;;;;;;10096837;28;20086;-67
2024/02/28 06:33:28;;;;;;;20.05;9.73;;;7.80;99.90;;;;;;10103157;28;20108;-65
2024/02/28 06:38:18;;;;;;;22.73;9.88;;;7.80;99.90;;;;;;10095969;28;20147;-66
2024/02/28 06:43:09;;;;;;;23.90;11.43;;;7.80;99.90;;;;;;10095818;28;20033;-65
2024/02/28 06:48:00;;;;;;;22.52;9.63;;;7.90;99.90;;;;;;10095168;28;20083;-66
2024/02/28 06:52:53;;;;;;;18.33;9.82;;;7.90;99.90;;;;;;10094729;28;20071;-66
2024/02/28 06:57:44;;;;;;;20.25;9.38;;;7.80;99.90;;;;;;10095540;28;20025;-67
2024/02/28 07:02:35;;;;;;;19.55;10.48;;;7.80;99.90;;;;;;10094565;28;20033;-66
2024/02/28 07:07:26;;;;;;;21.33;11.18;;;7.80;99.90;;;;;;10100642;28;20663;-65
2024/02/28 07:12:17;;;;;;;18.13;11.00;;;7.80;99.90;;;;;;10094187;28;20102;-66
2024/02/28 07:17:07;;;;;;;20.02;10.23;;;7.80;99.90;;;;;;10096406;28;20044;-66
2024/02/28 07:21:58;;;;;;;29.55;11.90;;;7.70;99.90;;;;;;10098094;28;20044;-66
2024/02/28 07:26:50;;;;;;;20.02;9.82;;;7.70;99.90;;;;;;10094714;28;20437;-66
2024/02/28 07:31:40;;;;;;;22.27;10.93;;;7.90;99.90;;;;;;10090247;28;20108;-66
2024/02/28 07:36:31;;;;;;;25.95;10.75;;;7.90;99.90;;;;;;10094584;28;20108;-67
2024/02/28 07:41:22;;;;;;;21.60;10.70;;;7.80;99.90;;;;;;10100711;28;20076;-66
2024/02/28 07:46:13;;;;;;;20.67;10.32;;;8.00;99.90;;;;;;10075728;28;20094;-65
2024/02/28 07:51:09;;;;;;;24.30;11.05;;;7.90;99.90;;;;;;10090064;28;20538;-67
2024/02/28 07:56:00;;;;;;;21.33;10.65;;;7.90;99.90;;;;;;10096855;28;20032;-65
2024/02/28 08:00:54;;;;;;;20.33;9.60;;;8.00;99.90;;;;;;10103949;28;20029;-65
2024/02/28 08:05:46;;;;;;;24.77;10.48;;;7.90;99.90;;;;;;10103261;28;20049;-65
2024/02/28 08:10:39;;;;;;;25.42;11.15;;;7.90;99.90;;;;;;10108771;28;20029;-66
2024/02/28 08:15:31;;;;;;;24.23;10.95;;;7.90;99.90;;;;;;10101844;28;20438;-65
2024/02/28 08:20:21;;;;;;;22.35;11.07;;;7.90;99.90;;;;;;10104256;28;20044;-65
2024/02/28 08:25:12;;;;;;;19.90;9.93;;;7.80;99.90;;;;;;10104020;28;20040;-65
2024/02/28 08:30:05;;;;;;;18.10;9.57;;;7.90;99.90;;;;;;10100773;28;20473;-65
2024/02/28 08:34:58;;;;;;;22.30;10.40;;;8.00;99.90;;;;;;10100580;28;20386;-65
2024/02/28 08:39:49;;;;;;;21.42;10.65;;;8.00;99.90;;;;;;10099989;28;20415;-67
2024/02/28 08:44:41;;;;;;;23.75;10.50;;;8.00;99.90;;;;;;10100565;28;20036;-66
2024/02/28 08:49:31;;;;;;;20.83;9.98;;;8.00;99.90;;;;;;10099735;28;20060;-65
2024/02/28 08:54:22;;;;;;;21.08;9.57;;;8.00;99.90;;;;;;10100835;28;20059;-66
2024/02/28 08:59:13;;;;;;;25.10;9.95;;;8.10;99.90;;;;;;10100149;28;20025;-64
2024/02/28 09:04:03;;;;;;;21.35;9.73;;;8.10;99.90;;;;;;10098887;28;20064;-65
2024/02/28 09:08:54;;;;;;;22.20;10.07;;;8.20;99.90;;;;;;10104339;28;20017;-66
2024/02/28 09:13:45;;;;;;;19.35;10.00;;;8.20;99.90;;;;;;10098454;28;20029;-66
2024/02/28 09:18:36;;;;;;;17.23;9.32;;;8.20;99.90;;;;;;10110540;28;20029;-66
2024/02/28 09:23:26;;;;;;;19.40;9.93;;;8.30;99.90;;;;;;10099198;28;20025;-67
2024/02/28 09:28:17;;;;;;;28.60;10.60;;;8.40;99.90;;;;;;10098665;28;20727;-67
2024/02/28 09:33:08;;;;;;;22.00;10.50;;;8.50;99.90;;;;;;10080981;28;21316;-66
2024/02/28 09:37:59;;;;;;;19.50;10.38;;;8.50;99.90;;;;;;10095968;28;20045;-66
2024/02/28 09:43:00;;;;;;;19.88;9.95;;;8.50;99.90;;;;;;10098687;28;20112;-65
2024/02/28 09:47:50;;;;;;;16.58;8.65;;;8.50;99.90;;;;;;10099301;28;20044;-65
2024/02/28 09:52:41;;;;;;;17.70;8.57;;;8.60;99.90;;;;;;10112095;28;20024;-67
2024/02/28 09:57:33;;;;;;;18.98;10.40;;;8.50;99.90;;;;;;10110355;28;20048;-65
2024/02/28 10:02:25;;;;;;;18.02;8.82;;;8.50;99.90;;;;;;10104424;28;20033;-66
2024/02/28 10:07:16;;;;;;;20.38;9.35;;;8.70;99.90;;;;;;10085522;28;20053;-67
2024/02/28 10:12:07;;;;;;;15.90;10.10;;;8.60;99.90;;;;;;10105034;28;20612;-66
2024/02/28 10:16:58;;;;;;;22.13;9.52;;;8.80;99.90;;;;;;10118180;28;20182;-65
2024/02/28 10:21:49;;;;;;;16.23;9.30;;;8.80;99.90;;;;;;10104542;28;20044;-65
2024/02/28 10:26:56;;;;;;;19.52;10.80;;;8.90;99.90;;;;;;10102649;28;20041;-65
2024/02/28 10:31:47;;;;;;;18.67;8.98;;;8.90;99.90;;;;;;10097501;28;20248;-66
2024/02/28 10:36:39;;;;;;;16.23;9.35;;;9.00;99.90;;;;;;10104312;28;20029;-66
2024/02/28 10:41:32;;;;;;;17.88;9.70;;;8.80;99.90;;;;;;10101329;28;20097;-66
2024/02/28 10:46:23;;;;;;;18.92;9.07;;;8.90;99.90;;;;;;10100695;28;20155;-67
2024/02/28 10:51:18;;;;;;;21.60;9.80;;;9.00;99.90;;;;;;10108133;28;20025;-66
2024/02/28 10:56:11;;;;;;;18.17;8.70;;;9.10;99.90;;;;;;10099003;28;20025;-67
2024/02/28 11:01:02;;;;;;;21.25;9.73;;;9.10;99.90;;;;;;10096318;28;20036;-67
2024/02/28 11:05:53;;;;;;;20.20;9.02;;;9.10;99.90;;;;;;10095279;28;20045;-67
2024/02/28 11:10:46;;;;;;;17.92;9.60;;;9.20;99.90;;;;;;10104759;28;20096;-67
2024/02/28 11:15:36;;;;;;;19.13;9.30;;;9.30;99.90;;;;;;10083347;28;20060;-67
2024/02/28 11:20:33;;;;;;;17.80;9.23;;;9.30;99.90;;;;;;10097376;28;20051;-69
2024/02/28 11:25:24;;;;;;;16.52;9.27;;;9.30;99.90;;;;;;10106440;28;20048;-70
2024/02/28 11:30:15;;;;;;;14.60;8.15;;;9.40;99.90;;;;;;10104925;28;20536;-69
2024/02/28 11:35:07;;;;;;;17.08;8.50;;;9.40;99.90;;;;;;10095696;28;20133;-67
2024/02/28 11:39:58;;;;;;;13.50;7.22;;;9.50;99.90;;;;;;10108515;28;20052;-71
2024/02/28 11:44:58;;;;;;;14.73;7.57;;;9.50;99.90;;;;;;10102548;28;20115;-70
2024/02/28 11:49:52;;;;;;;12.65;6.40;;;9.50;99.90;;;;;;10102317;28;20028;-67
2024/02/28 11:54:43;;;;;;;14.40;7.20;;;9.70;99.90;;;;;;10101288;28;20556;-70
2024/02/28 11:59:33;;;;;;;15.43;7.38;;;9.70;99.90;;;;;;10102223;28;20033;-71
2024/02/28 12:04:27;;;;;;;11.38;6.47;;;9.90;99.90;;;;;;10104100;28;20057;-68
2024/02/28 12:09:18;;;;;;;15.88;7.43;;;9.90;99.90;;;;;;10101599;28;20035;-70
2024/02/28 12:14:10;;;;;;;13.93;6.65;;;10.00;99.90;;;;;;10083579;28;20017;-66
2024/02/28 12:19:02;;;;;;;11.85;6.75;;;10.20;99.90;;;;;;10102092;28;20028;-69
2024/02/28 12:23:53;;;;;;;13.75;6.55;;;10.30;99.90;;;;;;10100119;28;20044;-67
2024/02/28 12:28:45;;;;;;;11.95;6.32;;;10.30;99.90;;;;;;10098812;28;20072;-68
2024/02/28 12:33:35;;;;;;;11.98;6.15;;;10.40;99.90;;;;;;10118174;28;20067;-70
2024/02/28 12:38:26;;;;;;;11.05;6.45;;;10.50;99.90;;;;;;10108670;28;20106;-67
2024/02/28 12:43:16;;;;;;;10.05;5.90;;;10.60;99.90;;;;;;10096254;28;20029;-66
2024/02/28 12:48:07;;;;;;;10.25;5.47;;;10.80;99.90;;;;;;10099347;28;20048;-70
2024/02/28 12:52:58;;;;;;;9.55;5.32;;;10.90;99.90;;;;;;10103929;28;20037;-65
2024/02/28 12:57:48;;;;;;;11.88;5.30;;;11.10;99.90;;;;;;10099683;28;20021;-68
2024/02/28 13:02:40;;;;;;;10.35;5.88;;;11.20;99.90;;;;;;10106559;28;20560;-67
2024/02/28 13:07:30;;;;;;;9.45;5.35;;;11.20;99.90;;;;;;10113440;28;20044;-67
2024/02/28 13:12:22;;;;;;;8.07;4.95;;;11.30;99.90;;;;;;10133995;28;20447;-70
2024/02/28 13:17:13;;;;;;;9.55;5.60;;;11.30;99.90;;;;;;10102263;28;20304;-65
2024/02/28 13:22:04;;;;;;;9.02;4.85;;;11.50;99.90;;;;;;10106414;28;20146;-66
2024/02/28 13:26:54;;;;;;;9.45;4.70;;;11.50;99.90;;;;;;10099581;28;20163;-66
2024/02/28 13:31:45;;;;;;;8.65;4.43;;;11.60;99.90;;;;;;10098106;28;20120;-66
2024/02/28 13:36:36;;;;;;;7.75;4.15;;;11.70;99.90;;;;;;10097987;28;20274;-66
2024/02/28 13:41:27;;;;;;;5.75;3.65;;;11.90;99.90;;;;;;10102910;28;20165;-69
2024/02/28 13:46:19;;;;;;;9.85;5.40;;;12.00;99.90;;;;;;10100463;28;20040;-64
2024/02/28 13:51:10;;;;;;;7.53;4.60;;;12.10;99.90;;;;;;10096065;28;20025;-67
2024/02/28 13:56:01;;;;;;;7.93;3.50;;;12.30;99.90;;;;;;10098160;28;20554;-65
2024/02/28 14:00:52;;;;;;;7.40;3.78;;;12.40;99.90;;;;;;10109275;28;20028;-67
2024/02/28 14:05:43;;;;;;;8.90;4.07;;;12.50;99.90;;;;;;10104278;28;20082;-64
2024/02/28 14:10:34;;;;;;;5.50;3.70;;;12.70;99.90;;;;;;10104545;28;20028;-65
2024/02/28 14:15:25;;;;;;;9.15;4.10;;;12.90;99.90;;;;;;10101522;28;20025;-63
2024/02/28 14:20:16;;;;;;;5.63;3.42;;;13.10;99.90;;;;;;10097244;28;20021;-64
2024/02/28 14:25:16;;;;;;;10.93;5.85;;;13.20;99.90;;;;;;10125993;28;20439;-63
2024/02/28 14:30:08;;;;;;;10.48;5.75;;;13.70;99.90;;;;;;10099040;28;21004;-65
2024/02/28 14:34:59;;;;;;;6.18;3.80;;;13.90;99.90;;;;;;10099800;28;20052;-64
2024/02/28 14:39:49;;;;;;;5.63;3.72;;;14.00;99.90;;;;;;10100484;28;20020;-64
2024/02/28 14:44:40;;;;;;;8.23;4.25;;;14.00;99.90;;;;;;10095460;28;20084;-64
2024/02/28 14:49:30;;;;;;;6.35;3.58;;;13.90;99.90;;;;;;10099691;28;20017;-65
2024/02/28 14:54:22;;;;;;;9.75;4.28;;;14.10;99.90;;;;;;10095241;28;20047;-67
2024/02/28 14:59:13;;;;;;;5.88;3.70;;;14.10;99.90;;;;;;10093392;28;20371;-64
2024/02/28 15:04:04;;;;;;;7.68;3.95;;;14.00;99.90;;;;;;10093674;28;20665;-65
2024/02/28 15:08:54;;;;;;;8.32;3.85;;;14.00;99.90;;;;;;10101521;28;20029;-64
2024/02/28 15:13:45;;;;;;;8.70;3.95;;;13.80;99.90;;;;;;10103957;28;20406;-64
2024/02/28 15:18:35;;;;;;;7.07;3.13;;;13.90;99.90;;;;;;10098060;28;20505;-64
2024/02/28 15:23:26;;;;;;;6.70;3.63;;;14.00;99.90;;;;;;10095988;28;20041;-63
2024/02/28 15:28:17;;;;;;;7.05;4.15;;;14.10;99.90;;;;;;10099651;28;20059;-64
2024/02/28 15:33:07;;;;;;;7.55;3.50;;;14.10;99.90;;;;;;10099903;28;20053;-66
2024/02/28 15:37:58;;;;;;;4.72;3.05;;;14.20;99.90;;;;;;10074976;28;20099;-64
2024/02/28 15:42:49;;;;;;;7.57;3.72;;;14.20;99.90;;;;;;10062657;28;20041;-65
2024/02/28 15:47:40;;;;;;;7.25;3.83;;;14.10;99.90;;;;;;10058892;28;20068;-66
2024/02/28 15:52:31;;;;;;;8.20;5.15;;;14.00;99.90;;;;;;10061286;28;20103;-66
2024/02/28 15:57:22;;;;;;;8.18;4.35;;;13.90;99.90;;;;;;10063155;28;20120;-65
2024/02/28 16:02:13;;;;;;;6.68;4.10;;;13.90;99.90;;;;;;10065380;28;20029;-64
2024/02/28 16:07:04;;;;;;;6.28;3.70;;;14.10;99.90;;;;;;10065773;28;20493;-68
2024/02/28 16:11:54;;;;;;;5.10;3.05;;;14.20;99.90;;;;;;10066617;28;20026;-72
2024/02/28 16:16:45;;;;;;;9.07;3.70;;;14.00;99.90;;;;;;10060675;28;20184;-66
2024/02/28 16:21:36;;;;;;;12.85;4.43;;;14.00;99.90;;;;;;10066199;28;20077;-65
2024/02/28 16:26:27;;;;;;;6.00;3.55;;;13.90;99.90;;;;;;10061364;28;20030;-71
2024/02/28 16:31:17;;;;;;;8.38;3.90;;;13.80;99.90;;;;;;10058511;28;20021;-64
2024/02/28 16:36:08;;;;;;;7.53;4.22;;;13.50;99.90;;;;;;10063890;28;20029;-64
2024/02/28 16:41:02;;;;;;;8.05;3.70;;;13.20;99.90;;;;;;10067197;28;20119;-64
2024/02/28 16:45:55;;;;;;;7.78;3.75;;;13.00;99.90;;;;;;10061518;28;20073;-66
2024/02/28 16:50:45;;;;;;;9.55;5.43;;;12.90;99.90;;;;;;10061317;28;20507;-65
2024/02/28 16:55:36;;;;;;;11.43;6.45;;;12.80;99.90;;;;;;10064512;28;20025;-64
2024/02/28 17:00:28;;;;;;;13.38;7.95;;;12.60;99.90;;;;;;10065623;28;20113;-64
2024/02/28 17:05:19;;;;;;;12.95;7.13;;;12.40;99.90;;;;;;10067606;28;20029;-71
2024/02/28 17:10:10;;;;;;;14.98;7.45;;;12.30;99.90;;;;;;10056471;28;20034;-67
2024/02/28 17:15:00;;;;;;;15.65;7.25;;;12.30;99.90;;;;;;10067059;28;20041;-71
2024/02/28 17:19:55;;;;;;;16.13;8.00;;;12.20;99.90;;;;;;10059563;28;20029;-66
2024/02/28 17:24:46;;;;;;;12.82;7.43;;;12.20;99.90;;;;;;10066692;28;20045;-65
2024/02/28 17:29:36;;;;;;;12.50;6.38;;;12.20;99.90;;;;;;10055267;28;20033;-65
2024/02/28 17:34:27;;;;;;;13.23;7.28;;;12.10;99.90;;;;;;10057275;28;20487;-65
2024/02/28 17:39:20;;;;;;;12.77;7.05;;;12.00;99.90;;;;;;10057574;28;20021;-67
2024/02/28 17:44:11;;;;;;;14.20;6.65;;;12.00;99.90;;;;;;10062365;28;20060;-67
2024/02/28 17:49:02;;;;;;;15.05;7.60;;;12.00;99.90;;;;;;10065587;28;20028;-71
2024/02/28 17:53:53;;;;;;;16.63;7.32;;;11.90;99.90;;;;;;10057997;28;20040;-71
2024/02/28 17:58:44;;;;;;;18.17;9.20;;;11.90;99.90;;;;;;10059118;28;20033;-72
2024/02/28 18:03:34;;;;;;;14.40;6.95;;;11.80;99.90;;;;;;10056766;28;20049;-72
2024/02/28 18:08:28;;;;;;;14.35;7.55;;;11.70;99.90;;;;;;10061748;28;20035;-71
2024/02/28 18:13:21;;;;;;;16.38;8.48;;;11.70;99.90;;;;;;10058977;28;20092;-70
2024/02/28 18:18:12;;;;;;;16.70;8.00;;;11.70;99.90;;;;;;10052679;28;20072;-69
2024/02/28 18:23:03;;;;;;;16.50;8.30;;;11.60;99.90;;;;;;10062531;28;20042;-71
2024/02/28 18:27:53;;;;;;;12.63;7.38;;;11.50;99.90;;;;;;10054767;28;20501;-71
2024/02/28 18:32:47;;;;;;;14.68;7.35;;;11.40;99.90;;;;;;10055784;28;20079;-72
2024/02/28 18:37:39;;;;;;;15.68;8.80;;;11.30;99.90;;;;;;10058021;28;20180;-71
2024/02/28 18:42:30;;;;;;;15.98;8.32;;;11.20;99.90;;;;;;10059489;28;20276;-71
2024/02/28 18:47:23;;;;;;;17.85;8.60;;;11.10;99.90;;;;;;10057536;28;20188;-71
2024/02/28 18:52:14;;;;;;;14.80;7.97;;;11.10;99.90;;;;;;10065170;28;20560;-68
2024/02/28 18:57:04;;;;;;;13.93;8.05;;;11.00;99.90;;;;;;10063426;28;20061;-66
2024/02/28 19:01:55;;;;;;;19.35;9.18;;;11.00;99.90;;;;;;10069298;28;20096;-65
2024/02/28 19:06:47;;;;;;;18.48;8.43;;;10.90;99.90;;;;;;10078108;28;20199;-68
2024/02/28 19:11:38;;;;;;;17.80;8.82;;;10.80;99.90;;;;;;10078137;28;20060;-67
2024/02/28 19:16:29;;;;;;;18.25;9.50;;;10.80;99.90;;;;;;10084247;28;20114;-67
2024/02/28 19:21:19;;;;;;;18.23;9.35;;;10.80;99.90;;;;;;10098596;28;20114;-67
2024/02/28 19:26:11;;;;;;;17.58;9.00;;;10.80;99.90;;;;;;10072080;28;20052;-70
2024/02/28 19:31:02;;;;;;;17.45;8.68;;;10.80;99.90;;;;;;10091667;28;20037;-65
2024/02/28 19:35:53;;;;;;;18.88;8.93;;;10.80;99.90;;;;;;10079606;28;20036;-66
2024/02/28 19:40:44;;;;;;;18.83;8.40;;;10.70;99.90;;;;;;10073737;28;20112;-67
2024/02/28 19:45:34;;;;;;;16.63;8.55;;;10.60;99.90;;;;;;10094649;28;20021;-67
2024/02/28 19:50:25;;;;;;;18.08;9.52;;;10.50;99.90;;;;;;10097374;28;20059;-66
2024/02/28 19:55:15;;;;;;;18.92;8.88;;;10.40;99.90;;;;;;10091990;28;20038;-68
2024/02/28 20:00:07;;;;;;;18.15;9.18;;;10.40;99.90;;;;;;10083331;28;20029;-66
2024/02/28 20:04:57;;;;;;;18.25;9.93;;;10.40;99.90;;;;;;10075032;28;20587;-65
2024/02/28 20:09:48;;;;;;;21.63;10.18;;;10.30;99.90;;;;;;10064074;28;20030;-68
2024/02/28 20:14:41;;;;;;;19.20;10.25;;;10.30;99.90;;;;;;10074866;28;20116;-68
2024/02/28 20:19:32;;;;;;;18.08;9.95;;;10.30;99.90;;;;;;10072793;28;20022;-66
2024/02/28 20:24:22;;;;;;;21.05;9.80;;;10.20;99.90;;;;;;10071360;28;20056;-66
2024/02/28 20:29:13;;;;;;;19.25;9.93;;;10.20;99.90;;;;;;10073430;28;20047;-64
2024/02/28 20:34:04;;;;;;;17.92;9.70;;;10.20;99.90;;;;;;10064425;28;20552;-65
2024/02/28 20:38:56;;;;;;;16.75;9.10;;;10.10;99.90;;;;;;10059466;28;20024;-66
2024/02/28 20:43:49;;;;;;;21.55;10.18;;;10.10;99.90;;;;;;10056875;28;20038;-65
2024/02/28 20:48:43;;;;;;;20.27;10.07;;;10.10;99.90;;;;;;10062748;28;20067;-65
2024/02/28 20:53:34;;;;;;;21.35;9.68;;;10.10;99.90;;;;;;10064042;28;20124;-65
2024/02/28 20:58:24;;;;;;;19.77;9.77;;;10.10;99.90;;;;;;10058520;28;20148;-66
2024/02/28 21:03:15;;;;;;;16.20;8.35;;;10.00;99.90;;;;;;10064431;28;20404;-64
2024/02/28 21:08:06;;;;;;;18.80;9.85;;;9.90;99.90;;;;;;10055314;28;20042;-66
2024/02/28 21:12:57;;;;;;;17.50;9.63;;;9.90;99.90;;;;;;10063335;28;20028;-66
2024/02/28 21:17:47;;;;;;;21.42;9.45;;;9.90;99.90;;;;;;10061684;28;20031;-67
2024/02/28 21:22:40;;;;;;;20.88;10.68;;;9.80;99.90;;;;;;10058157;28;20427;-64
2024/02/28 21:27:31;;;;;;;22.15;10.40;;;9.80;99.90;;;;;;10063425;28;20033;-65
2024/02/28 21:32:22;;;;;;;18.20;10.10;;;9.70;99.90;;;;;;10055280;28;20037;-66
2024/02/28 21:37:13;;;;;;;19.45;9.70;;;9.80;99.90;;;;;;10057068;28;20037;-65
2024/02/28 21:42:04;;;;;;;17.17;9.05;;;9.90;99.90;;;;;;10061974;28;20067;-67
2024/02/28 21:46:55;;;;;;;18.52;9.52;;;9.80;99.90;;;;;;10043503;28;20033;-67
2024/02/28 21:51:45;;;;;;;18.63;8.18;;;9.90;99.90;;;;;;10056166;28;20021;-67
2024/02/28 21:56:40;;;;;;;17.15;8.57;;;9.90;99.90;;;;;;10058480;28;20017;-64
2024/02/28 22:01:31;;;;;;;21.07;11.13;;;9.90;99.90;;;;;;10067916;28;20117;-67
2024/02/28 22:06:22;;;;;;;19.75;8.65;;;9.90;99.90;;;;;;10055761;28;20100;-67
2024/02/28 22:11:12;;;;;;;22.65;10.55;;;9.80;99.90;;;;;;10057038;28;20060;-69
2024/02/28 22:16:03;;;;;;;20.58;10.32;;;9.80;99.90;;;;;;10057465;28;20064;-70
2024/02/28 22:20:54;;;;;;;19.42;10.38;;;9.70;99.90;;;;;;10047205;28;20076;-67
2024/02/28 22:25:48;;;;;;;19.15;9.45;;;9.60;99.90;;;;;;10071548;28;20136;-72
2024/02/28 22:30:38;;;;;;;20.30;9.45;;;9.60;99.90;;;;;;10058099;28;20036;-67
2024/02/28 22:35:29;;;;;;;17.90;8.40;;;9.60;99.90;;;;;;10053590;28;20429;-69
2024/02/28 22:40:20;;;;;;;21.48;10.55;;;9.60;99.90;;;;;;10068840;28;20021;-67
2024/02/28 22:45:10;;;;;;;20.95;11.90;;;9.60;99.90;;;;;;10065184;28;20108;-68
2024/02/28 22:50:01;;;;;;;24.05;11.07;;;9.60;99.90;;;;;;10061114;28;20029;-66
2024/02/28 22:54:53;;;;;;;22.33;11.43;;;9.50;99.90;;;;;;10063446;28;20112;-65
2024/02/28 22:59:44;;;;;;;19.52;9.05;;;9.40;99.90;;;;;;10063905;28;20104;-67
2024/02/28 23:04:35;;;;;;;22.52;9.65;;;9.40;99.90;;;;;;10063945;28;20172;-66
2024/02/28 23:09:26;;;;;;;21.27;10.82;;;9.40;99.90;;;;;;10064494;28;20104;-66
2024/02/28 23:14:18;;;;;;;20.08;10.13;;;9.40;99.90;;;;;;10052624;28;20451;-66
2024/02/28 23:19:08;;;;;;;21.60;10.98;;;9.40;99.90;;;;;;10062942;28;20030;-66
2024/02/28 23:24:00;;;;;;;18.67;9.77;;;9.30;99.90;;;;;;10054102;28;20582;-66
2024/02/28 23:28:51;;;;;;;19.63;10.25;;;9.30;99.90;;;;;;10064872;28;20083;-65
2024/02/28 23:33:42;;;;;;;19.05;9.63;;;9.30;99.90;;;;;;10054979;28;20576;-67
2024/02/28 23:38:32;;;;;;;22.83;10.30;;;9.30;99.90;;;;;;10064440;28;20025;-71
2024/02/28 23:43:23;;;;;;;20.92;9.73;;;9.20;99.90;;;;;;10065316;28;20037;-72
2024/02/28 23:48:14;;;;;;;24.88;10.80;;;9.20;99.90;;;;;;10061481;28;20499;-71
2024/02/28 23:53:10;;;;;;;21.10;10.23;;;9.20;99.90;;;;;;10066563;28;20029;-66
2024/02/28 23:58:01;;;;;;;23.83;10.27;;;9.20;99.90;;;;;;10063016;28;20032;-67
